Time;durP1;ratioP1;P1;durP2;ratioP2;P2;SDS_P1;SDS_P2;PMS_P1;PMS_P2;Temp;Humidity;BMP_temperature;BMP_pressure;BME280_temperature;BME280_humidity;BME280_pressure;Samples;Min_cycle;Max_cycle;Signal;HPM_P1;HPM_P2
2023/01/23 00:01:23;;;;;;;12.35;5.03;;;3.60;99.90;;;;;;5133199;27;20121;-63
2023/01/23 00:03:49;;;;;;;13.77;5.57;;;3.70;99.90;;;;;;5133138;27;20027;-63
2023/01/23 00:06:16;;;;;;;12.45;5.35;;;3.60;99.90;;;;;;5132995;27;20043;-64
2023/01/23 00:08:44;;;;;;;13.88;5.80;;;3.60;99.90;;;;;;5132961;27;20047;-63
2023/01/23 00:11:12;;;;;;;11.23;4.90;;;3.60;99.90;;;;;;5133059;27;20035;-63
2023/01/23 00:13:38;;;;;;;10.57;4.90;;;3.50;99.90;;;;;;5133084;27;20035;-64
2023/01/23 00:16:10;;;;;;;13.00;5.80;;;3.60;99.90;;;;;;5132983;27;20043;-64
2023/01/23 00:18:36;;;;;;;10.63;6.00;;;3.50;99.90;;;;;;5133114;27;20039;-64
2023/01/23 00:21:07;;;;;;;15.00;5.68;;;3.60;99.90;;;;;;5133001;28;20035;-63
2023/01/23 00:23:33;;;;;;;9.85;5.32;;;3.50;99.90;;;;;;5114662;28;20042;-64
2023/01/23 00:26:07;;;;;;;8.85;5.35;;;3.50;99.90;;;;;;5132767;28;20547;-63
2023/01/23 00:28:33;;;;;;;9.35;4.90;;;3.50;99.90;;;;;;5132575;28;20058;-64
2023/01/23 00:31:07;;;;;;;13.88;5.72;;;3.60;99.90;;;;;;5132637;28;20071;-63
2023/01/23 00:33:33;;;;;;;7.68;5.13;;;3.50;99.90;;;;;;5132894;28;20035;-63
2023/01/23 00:35:59;;;;;;;12.10;4.97;;;3.40;99.90;;;;;;5132655;28;20031;-63
2023/01/23 00:38:25;;;;;;;11.90;5.30;;;3.50;99.90;;;;;;5132612;28;20109;-64
2023/01/23 00:40:53;;;;;;;8.48;5.22;;;3.40;99.90;;;;;;5133213;27;20525;-63
2023/01/23 00:43:20;;;;;;;9.02;5.63;;;3.50;99.90;;;;;;5136842;27;20477;-64
2023/01/23 00:45:45;;;;;;;10.77;5.05;;;3.50;99.90;;;;;;5137009;27;20031;-63
2023/01/23 00:48:11;;;;;;;11.90;5.32;;;3.50;99.90;;;;;;5136672;27;20084;-64
2023/01/23 00:50:36;;;;;;;10.73;5.50;;;3.50;99.90;;;;;;5136649;27;20422;-64
2023/01/23 00:53:02;;;;;;;11.90;6.03;;;3.40;99.90;;;;;;5136552;27;20046;-63
2023/01/23 00:55:28;;;;;;;12.38;4.78;;;3.40;99.90;;;;;;5136594;27;20035;-63
2023/01/23 00:57:53;;;;;;;13.95;5.50;;;3.50;99.90;;;;;;5136620;27;20396;-64
2023/01/23 01:00:19;;;;;;;11.23;5.10;;;3.40;99.90;;;;;;5136677;27;20055;-63
2023/01/23 01:02:44;;;;;;;13.00;4.80;;;3.50;99.90;;;;;;5136542;27;20035;-63
2023/01/23 01:05:10;;;;;;;8.68;4.95;;;3.40;99.90;;;;;;5101086;27;20046;-63
2023/01/23 01:07:36;;;;;;;12.80;4.72;;;3.40;99.90;;;;;;5136269;27;20035;-63
2023/01/23 01:10:01;;;;;;;7.32;5.30;;;3.40;99.90;;;;;;5136460;27;20439;-64
2023/01/23 01:12:27;;;;;;;14.88;4.90;;;3.40;99.90;;;;;;5136340;27;20070;-63
2023/01/23 01:14:53;;;;;;;9.40;5.35;;;3.40;99.90;;;;;;5136395;27;20065;-63
2023/01/23 01:17:18;;;;;;;11.00;5.05;;;3.50;99.90;;;;;;5136257;27;20039;-63
2023/01/23 01:19:44;;;;;;;11.10;4.63;;;3.40;99.90;;;;;;5136252;27;20564;-63
2023/01/23 01:22:10;;;;;;;11.63;5.13;;;3.40;99.90;;;;;;5136039;27;20122;-64
2023/01/23 01:24:35;;;;;;;10.15;5.40;;;3.30;99.90;;;;;;5135880;27;20073;-63
2023/01/23 01:27:01;;;;;;;11.50;5.28;;;3.40;99.90;;;;;;5135881;27;20039;-63
2023/01/23 01:29:27;;;;;;;10.63;5.68;;;4.00;99.90;;;;;;5136159;27;20071;-64
2023/01/23 01:31:52;;;;;;;7.13;4.85;;;3.40;99.90;;;;;;5136042;27;20068;-63
2023/01/23 01:34:18;;;;;;;13.23;5.35;;;3.40;99.90;;;;;;5136090;27;20118;-63
2023/01/23 01:36:44;;;;;;;10.57;5.55;;;3.30;99.90;;;;;;5135705;27;20043;-63
2023/01/23 01:39:09;;;;;;;13.05;5.22;;;3.40;99.90;;;;;;5135733;27;20071;-63
2023/01/23 01:41:35;;;;;;;9.30;5.30;;;3.40;99.90;;;;;;5135828;27;20037;-63
2023/01/23 01:44:01;;;;;;;9.27;5.00;;;3.40;99.90;;;;;;5135859;27;20434;-64
2023/01/23 01:46:28;;;;;;;11.45;4.88;;;3.40;99.90;;;;;;5135623;27;20042;-64
2023/01/23 01:49:25;;;;;;;9.25;5.07;;;3.40;99.90;;;;;;5135564;27;20043;-64
2023/01/23 01:52:05;;;;;;;11.48;5.13;;;3.40;99.90;;;;;;5032239;28;20056;-63
2023/01/23 01:54:42;;;;;;;12.32;5.85;;;3.40;99.90;;;;;;5031565;28;20499;-63
2023/01/23 01:57:17;;;;;;;10.27;5.50;;;3.40;99.90;;;;;;5032101;28;20137;-64
2023/01/23 01:59:55;;;;;;;10.65;5.40;;;3.70;99.90;;;;;;5031955;28;20045;-63
2023/01/23 02:02:35;;;;;;;11.55;5.35;;;3.30;99.90;;;;;;5015950;28;20057;-64
2023/01/23 02:05:11;;;;;;;10.05;5.10;;;3.40;99.90;;;;;;4999416;28;20045;-63
2023/01/23 02:07:45;;;;;;;7.22;4.70;;;3.40;99.90;;;;;;5015464;28;20049;-64
2023/01/23 02:10:13;;;;;;;12.20;5.55;;;3.40;99.90;;;;;;5031920;28;20037;-63
2023/01/23 02:12:39;;;;;;;15.13;5.82;;;3.30;99.90;;;;;;5031930;28;20059;-63
2023/01/23 02:15:06;;;;;;;9.45;5.03;;;3.40;99.90;;;;;;5031920;28;20053;-63
2023/01/23 02:17:34;;;;;;;13.70;5.43;;;3.40;99.90;;;;;;5031705;28;20057;-63
2023/01/23 02:20:08;;;;;;;9.13;5.45;;;3.40;99.90;;;;;;5031930;28;20131;-64
2023/01/23 02:22:56;;;;;;;10.55;5.85;;;3.40;99.90;;;;;;5031572;28;20045;-64
2023/01/23 02:25:43;;;;;;;10.38;5.88;;;3.40;99.90;;;;;;5015283;28;20048;-63
2023/01/23 02:28:14;;;;;;;8.88;4.78;;;3.40;99.90;;;;;;5061052;28;20402;-63
2023/01/23 02:30:42;;;;;;;10.60;5.20;;;3.40;99.90;;;;;;5093968;28;20120;-63
2023/01/23 02:33:30;;;;;;;7.80;5.22;;;3.40;99.90;;;;;;5092591;28;20040;-64
2023/01/23 02:35:57;;;;;;;10.55;5.57;;;3.40;99.90;;;;;;5093669;28;20046;-63
2023/01/23 02:38:27;;;;;;;12.63;6.30;;;3.40;99.90;;;;;;5093697;28;20432;-64
2023/01/23 02:40:54;;;;;;;8.95;5.13;;;3.40;99.90;;;;;;5093704;28;20051;-63
2023/01/23 02:43:23;;;;;;;12.80;6.03;;;3.40;99.90;;;;;;5093533;28;20032;-64
2023/01/23 02:45:49;;;;;;;11.00;5.95;;;3.40;99.90;;;;;;5093431;28;20085;-63
2023/01/23 02:48:15;;;;;;;9.82;6.80;;;3.40;99.90;;;;;;5092181;28;20441;-63
2023/01/23 02:50:42;;;;;;;10.48;5.85;;;3.40;99.90;;;;;;5093477;28;20036;-63
2023/01/23 02:53:08;;;;;;;12.45;5.05;;;3.50;99.90;;;;;;5092260;28;20454;-64
2023/01/23 02:55:33;;;;;;;13.57;6.35;;;3.40;99.90;;;;;;5093332;28;20070;-64
2023/01/23 03:00:44;;;;;;;10.15;5.93;;;3.40;99.90;;;;;;5093191;28;20486;-64
2023/01/23 03:03:10;;;;;;;11.30;6.70;;;3.40;99.90;;;;;;5092373;28;20119;-63
2023/01/23 03:05:36;;;;;;;13.40;6.18;;;3.40;99.90;;;;;;5093131;28;20119;-63
2023/01/23 03:08:01;;;;;;;13.75;7.35;;;3.50;99.90;;;;;;5093222;28;20044;-64
2023/01/23 03:10:29;;;;;;;11.38;6.10;;;3.40;99.90;;;;;;5093137;28;20465;-64
2023/01/23 03:12:57;;;;;;;10.27;6.20;;;3.50;99.90;;;;;;5093103;28;20113;-63
2023/01/23 03:15:23;;;;;;;10.75;6.05;;;3.50;99.90;;;;;;5091941;28;20036;-64
2023/01/23 03:17:48;;;;;;;13.02;5.40;;;3.90;99.90;;;;;;5093002;28;20090;-63
2023/01/23 03:20:18;;;;;;;12.05;5.72;;;3.50;99.90;;;;;;5093012;28;20067;-63
2023/01/23 03:22:43;;;;;;;10.25;6.15;;;3.50;99.90;;;;;;5092866;28;20047;-64
2023/01/23 03:25:09;;;;;;;11.77;5.90;;;3.50;99.90;;;;;;5092871;28;20036;-63
2023/01/23 03:27:36;;;;;;;10.75;6.30;;;3.50;99.90;;;;;;5103033;27;20381;-63
2023/01/23 03:30:15;;;;;;;10.77;6.07;;;3.60;99.90;;;;;;5134094;27;20130;-63
2023/01/23 03:32:45;;;;;;;10.80;6.22;;;3.50;99.90;;;;;;5133576;27;20035;-63
2023/01/23 03:35:15;;;;;;;12.50;6.05;;;3.50;99.90;;;;;;5133627;27;20042;-64
2023/01/23 03:37:42;;;;;;;12.00;6.60;;;3.50;99.90;;;;;;5114937;27;20493;-63
2023/01/23 03:43:12;;;;;;;11.70;6.10;;;3.50;99.90;;;;;;5133599;27;20075;-63
2023/01/23 03:45:38;;;;;;;9.95;6.78;;;3.50;99.90;;;;;;5133528;27;20086;-63
2023/01/23 03:48:03;;;;;;;9.77;6.18;;;3.50;99.90;;;;;;5133346;27;20066;-63
2023/01/23 03:50:29;;;;;;;13.40;6.45;;;3.50;99.90;;;;;;5133251;27;20035;-64
2023/01/23 03:52:54;;;;;;;12.52;6.20;;;3.50;99.90;;;;;;5133560;27;20424;-64
2023/01/23 03:55:20;;;;;;;13.50;6.82;;;3.50;99.90;;;;;;5133229;27;20534;-63
2023/01/23 03:57:46;;;;;;;13.05;7.38;;;3.50;99.90;;;;;;5133200;27;20036;-63
2023/01/23 04:00:12;;;;;;;11.20;6.13;;;3.50;99.90;;;;;;5133232;27;20066;-63
2023/01/23 04:02:38;;;;;;;9.75;6.18;;;3.50;99.90;;;;;;5132974;27;20389;-63
2023/01/23 04:05:04;;;;;;;10.57;6.47;;;3.60;99.90;;;;;;5133196;27;20042;-63
2023/01/23 04:07:30;;;;;;;14.00;6.85;;;3.50;99.90;;;;;;5133126;27;20119;-63
2023/01/23 04:09:55;;;;;;;8.25;6.05;;;3.50;99.90;;;;;;5133419;27;20110;-64
2023/01/23 04:12:21;;;;;;;14.10;6.47;;;3.50;99.90;;;;;;5133197;27;20887;-64
2023/01/23 04:14:46;;;;;;;9.57;5.97;;;3.50;99.90;;;;;;5133033;27;20524;-64
2023/01/23 04:17:12;;;;;;;14.45;6.82;;;3.50;99.90;;;;;;5132185;27;20043;-64
2023/01/23 04:19:38;;;;;;;9.25;6.20;;;3.60;99.90;;;;;;5132869;27;20068;-64
2023/01/23 04:22:03;;;;;;;13.45;6.20;;;3.50;99.90;;;;;;5132800;28;20124;-64
2023/01/23 04:24:29;;;;;;;7.78;5.60;;;3.40;99.90;;;;;;5132984;28;20043;-64
2023/01/23 04:26:55;;;;;;;7.93;5.50;;;3.50;99.90;;;;;;5114398;28;20079;-64
2023/01/23 04:29:20;;;;;;;11.25;6.30;;;3.50;99.90;;;;;;5132563;28;20400;-63
2023/01/23 04:31:46;;;;;;;9.35;6.35;;;3.50;99.90;;;;;;5132869;28;20035;-63
2023/01/23 04:34:12;;;;;;;10.50;6.10;;;3.50;99.90;;;;;;5132643;28;20035;-63
2023/01/23 04:36:37;;;;;;;12.55;5.28;;;3.60;99.90;;;;;;5132804;28;20151;-63
2023/01/23 04:39:03;;;;;;;12.77;6.18;;;3.40;99.90;;;;;;5132718;28;20431;-64
2023/01/23 04:41:32;;;;;;;10.35;5.40;;;3.40;99.90;;;;;;5132773;28;20039;-63
2023/01/23 04:44:18;;;;;;;10.57;5.45;;;3.50;99.90;;;;;;5132727;28;20031;-63
2023/01/23 04:46:45;;;;;;;12.02;5.80;;;3.50;99.90;;;;;;5132386;28;20545;-63
2023/01/23 04:49:11;;;;;;;9.70;5.50;;;3.40;99.90;;;;;;5132870;28;20109;-64
2023/01/23 04:51:37;;;;;;;12.63;6.13;;;3.50;99.90;;;;;;5132798;28;20445;-63
2023/01/23 04:54:02;;;;;;;8.27;5.47;;;3.50;99.90;;;;;;5114506;28;20045;-63
2023/01/23 04:56:28;;;;;;;8.15;5.57;;;3.50;99.90;;;;;;5132816;28;20051;-64
2023/01/23 04:58:54;;;;;;;12.98;5.82;;;3.50;99.90;;;;;;5132473;28;20078;-63
2023/01/23 05:01:22;;;;;;;14.05;5.88;;;3.50;99.90;;;;;;5132466;28;20038;-64
2023/01/23 05:03:48;;;;;;;8.98;5.60;;;3.40;99.90;;;;;;5132483;28;20039;-63
2023/01/23 05:06:14;;;;;;;13.70;5.53;;;3.40;99.90;;;;;;5132670;28;20099;-63
2023/01/23 05:08:40;;;;;;;14.40;5.82;;;3.50;99.90;;;;;;5132569;28;20035;-64
2023/01/23 05:11:05;;;;;;;13.80;5.68;;;3.40;99.90;;;;;;5132409;28;20100;-64
2023/01/23 05:13:31;;;;;;;7.50;5.03;;;3.50;99.90;;;;;;5132343;28;20043;-63
2023/01/23 05:15:57;;;;;;;12.35;6.20;;;3.40;99.90;;;;;;5132374;28;20031;-64
2023/01/23 05:18:22;;;;;;;11.80;6.05;;;3.50;99.90;;;;;;5132567;28;20396;-63
2023/01/23 05:20:48;;;;;;;13.30;6.80;;;3.40;99.90;;;;;;5132602;28;20035;-64
2023/01/23 05:23:14;;;;;;;11.05;6.10;;;3.50;99.90;;;;;;5132393;28;20072;-64
2023/01/23 05:25:39;;;;;;;13.18;6.18;;;3.40;99.90;;;;;;5132463;28;20077;-63
2023/01/23 05:28:05;;;;;;;11.90;6.25;;;3.50;99.90;;;;;;5132833;27;20059;-63
2023/01/23 05:30:30;;;;;;;15.05;6.80;;;3.40;99.90;;;;;;5136237;27;20451;-63
2023/01/23 05:32:56;;;;;;;12.18;6.97;;;3.40;99.90;;;;;;5136095;27;20538;-63
2023/01/23 05:35:22;;;;;;;15.57;6.70;;;3.40;99.90;;;;;;5136185;27;20039;-63
2023/01/23 05:37:51;;;;;;;10.70;6.97;;;3.40;99.90;;;;;;5135857;27;20480;-63
2023/01/23 05:40:18;;;;;;;13.15;7.35;;;3.40;99.90;;;;;;5135774;27;20472;-64
2023/01/23 05:42:44;;;;;;;11.95;6.93;;;3.40;99.90;;;;;;5115013;27;20044;-63
2023/01/23 05:45:10;;;;;;;10.32;6.70;;;3.30;99.90;;;;;;5135613;27;20048;-64
2023/01/23 05:47:35;;;;;;;16.70;7.32;;;3.30;99.90;;;;;;5135916;27;20066;-63
2023/01/23 05:50:02;;;;;;;15.20;7.40;;;3.30;99.90;;;;;;5135949;27;20797;-63
2023/01/23 05:52:27;;;;;;;13.25;7.30;;;3.30;99.90;;;;;;5135771;27;20050;-63
2023/01/23 05:54:53;;;;;;;10.55;7.10;;;3.30;99.90;;;;;;5135535;27;20477;-63
2023/01/23 05:57:19;;;;;;;18.55;8.52;;;3.30;99.90;;;;;;5134964;27;20071;-63
2023/01/23 05:59:44;;;;;;;10.07;6.25;;;3.30;99.90;;;;;;5116498;27;20050;-63
2023/01/23 06:02:10;;;;;;;12.30;7.50;;;3.30;99.90;;;;;;5135572;27;20035;-63
2023/01/23 06:04:36;;;;;;;10.27;6.80;;;3.40;99.90;;;;;;5099921;27;20070;-63
2023/01/23 06:07:02;;;;;;;12.60;7.18;;;3.30;99.90;;;;;;5134969;27;20070;-64
2023/01/23 06:09:28;;;;;;;11.77;6.53;;;3.30;99.90;;;;;;5135308;27;20073;-63
2023/01/23 06:11:53;;;;;;;11.88;6.85;;;3.30;99.90;;;;;;5135067;27;20116;-63
2023/01/23 06:14:19;;;;;;;17.77;7.15;;;3.30;99.90;;;;;;5134019;27;20495;-63
2023/01/23 06:16:45;;;;;;;12.13;6.88;;;3.30;99.90;;;;;;5134312;27;20035;-64
2023/01/23 06:19:11;;;;;;;10.15;6.90;;;3.30;99.90;;;;;;5135024;27;20088;-63
2023/01/23 06:21:37;;;;;;;11.38;7.35;;;3.40;99.90;;;;;;5135039;27;20031;-63
2023/01/23 06:24:02;;;;;;;12.38;6.95;;;3.30;99.90;;;;;;5135025;27;20050;-64
2023/01/23 06:26:28;;;;;;;12.02;6.78;;;3.30;99.90;;;;;;5134697;27;20061;-63
2023/01/23 06:28:54;;;;;;;12.27;6.85;;;3.30;99.90;;;;;;5134256;27;20413;-63
2023/01/23 06:31:19;;;;;;;12.77;7.55;;;3.30;99.90;;;;;;5135307;27;20409;-63
2023/01/23 06:33:51;;;;;;;10.93;6.95;;;3.30;99.90;;;;;;5134885;27;20035;-64
2023/01/23 06:36:17;;;;;;;13.82;7.45;;;3.30;99.90;;;;;;5134810;27;20110;-63
2023/01/23 06:38:43;;;;;;;13.02;7.03;;;3.30;99.90;;;;;;5134291;27;20141;-63
2023/01/23 06:41:09;;;;;;;13.13;7.35;;;3.20;99.90;;;;;;5116433;27;20063;-63
2023/01/23 06:43:35;;;;;;;15.15;8.13;;;3.20;99.90;;;;;;5134987;27;20046;-64
2023/01/23 06:46:00;;;;;;;14.05;7.93;;;3.30;99.90;;;;;;5134931;27;20035;-63
2023/01/23 06:48:26;;;;;;;16.45;8.52;;;3.20;99.90;;;;;;5134449;27;20042;-63
2023/01/23 06:50:52;;;;;;;11.98;7.38;;;3.20;99.90;;;;;;5134604;27;20477;-64
2023/01/23 06:53:18;;;;;;;10.68;7.18;;;3.40;99.90;;;;;;5134481;27;20043;-63
2023/01/23 06:55:44;;;;;;;12.80;7.05;;;3.20;99.90;;;;;;5134223;27;20050;-64
2023/01/23 06:58:10;;;;;;;11.18;7.38;;;3.30;99.90;;;;;;5134074;27;20045;-63
2023/01/23 07:00:36;;;;;;;13.85;7.45;;;3.20;99.90;;;;;;5134248;27;20043;-63
2023/01/23 07:03:04;;;;;;;12.27;7.63;;;3.20;99.90;;;;;;5134305;27;20501;-63
2023/01/23 07:05:34;;;;;;;14.82;8.15;;;3.30;99.90;;;;;;5134198;27;20042;-64
2023/01/23 07:08:00;;;;;;;12.90;7.63;;;3.30;99.90;;;;;;5134034;27;20097;-63
2023/01/23 07:10:26;;;;;;;10.63;7.35;;;3.20;99.90;;;;;;5133964;27;20389;-63
2023/01/23 07:12:52;;;;;;;13.63;7.32;;;3.20;99.90;;;;;;5134158;27;20043;-63
2023/01/23 07:15:18;;;;;;;10.45;7.00;;;3.20;99.90;;;;;;5134101;27;20138;-64
2023/01/23 07:17:43;;;;;;;12.05;8.02;;;3.20;99.90;;;;;;5115469;27;20039;-64
2023/01/23 07:20:10;;;;;;;11.85;7.47;;;3.30;99.90;;;;;;5133840;27;20092;-63
2023/01/23 07:22:35;;;;;;;12.18;7.97;;;3.30;99.90;;;;;;5133880;27;20074;-62
2023/01/23 07:25:01;;;;;;;11.35;6.95;;;3.20;99.90;;;;;;5133905;27;20067;-62
2023/01/23 07:27:26;;;;;;;11.40;7.80;;;3.40;99.90;;;;;;5133823;27;20048;-62
2023/01/23 07:29:52;;;;;;;11.25;6.45;;;3.20;99.90;;;;;;5134111;27;20415;-62
2023/01/23 07:32:18;;;;;;;10.90;7.18;;;3.30;99.90;;;;;;5133883;27;20087;-62
2023/01/23 07:34:43;;;;;;;13.57;7.47;;;3.20;99.90;;;;;;5133856;27;20050;-62
2023/01/23 07:37:09;;;;;;;13.68;7.85;;;3.30;99.90;;;;;;5133675;27;20042;-62
2023/01/23 07:39:34;;;;;;;16.27;7.30;;;3.30;99.90;;;;;;5133756;27;20038;-61
2023/01/23 07:42:00;;;;;;;11.13;7.45;;;3.40;99.90;;;;;;5133628;27;20785;-61
2023/01/23 07:44:26;;;;;;;12.40;7.05;;;3.30;99.90;;;;;;5133659;27;20035;-61
2023/01/23 07:46:51;;;;;;;11.70;7.15;;;3.30;99.90;;;;;;5133243;27;20385;-62
2023/01/23 07:49:17;;;;;;;15.43;7.53;;;3.30;99.90;;;;;;5133482;27;20039;-62
2023/01/23 07:51:43;;;;;;;9.68;6.72;;;3.30;99.90;;;;;;5132723;27;20088;-62
2023/01/23 07:54:09;;;;;;;13.40;7.25;;;3.30;99.90;;;;;;5115099;27;20050;-62
2023/01/23 07:56:35;;;;;;;10.10;7.47;;;3.50;99.90;;;;;;5133462;27;20042;-61
2023/01/23 07:59:00;;;;;;;10.68;7.22;;;3.30;99.90;;;;;;5133568;27;20385;-62
2023/01/23 08:01:26;;;;;;;12.20;7.15;;;3.30;99.90;;;;;;5133385;27;20035;-62
2023/01/23 08:03:52;;;;;;;11.35;7.07;;;3.30;99.90;;;;;;5133441;27;20099;-62
2023/01/23 08:06:18;;;;;;;11.50;6.63;;;3.30;99.90;;;;;;5133260;27;20031;-62
2023/01/23 08:08:47;;;;;;;8.20;6.28;;;3.30;99.90;;;;;;5133017;27;20539;-62
2023/01/23 08:11:13;;;;;;;8.70;5.72;;;3.40;99.90;;;;;;5133539;27;20074;-62
2023/01/23 08:13:39;;;;;;;10.25;6.93;;;3.40;99.90;;;;;;5133139;27;20366;-63
2023/01/23 08:16:06;;;;;;;11.32;6.70;;;3.30;99.90;;;;;;5133116;27;20035;-63
2023/01/23 08:18:32;;;;;;;11.02;6.32;;;3.30;99.90;;;;;;5132987;27;20035;-61
2023/01/23 08:21:00;;;;;;;7.57;5.80;;;3.40;99.90;;;;;;5114586;27;20047;-62
2023/01/23 08:23:27;;;;;;;10.20;5.82;;;3.40;99.90;;;;;;5133118;28;20095;-62
2023/01/23 08:25:58;;;;;;;8.85;6.15;;;3.40;99.90;;;;;;5133023;28;20031;-62
2023/01/23 08:28:24;;;;;;;7.18;5.35;;;3.40;99.90;;;;;;5114571;28;20055;-62
2023/01/23 08:30:51;;;;;;;10.82;6.05;;;3.40;99.90;;;;;;5132986;28;20042;-62
2023/01/23 08:33:18;;;;;;;13.95;6.28;;;3.40;99.90;;;;;;5132917;28;20043;-62
2023/01/23 08:35:51;;;;;;;9.48;6.65;;;3.40;99.90;;;;;;5132737;28;20118;-62
2023/01/23 08:38:20;;;;;;;8.82;5.60;;;3.40;99.90;;;;;;5133002;28;20039;-61
2023/01/23 08:40:47;;;;;;;8.43;5.40;;;3.40;99.90;;;;;;5132906;28;20385;-62
2023/01/23 08:43:14;;;;;;;7.95;5.47;;;3.40;99.90;;;;;;5133053;28;20114;-62
2023/01/23 08:45:52;;;;;;;8.18;5.20;;;3.50;99.90;;;;;;5132978;28;20156;-62
2023/01/23 08:48:19;;;;;;;7.10;4.97;;;3.50;99.90;;;;;;5114366;28;20246;-62
2023/01/23 08:50:44;;;;;;;5.95;4.50;;;3.50;99.90;;;;;;5132823;28;20054;-62
2023/01/23 08:53:11;;;;;;;7.20;5.05;;;3.50;99.90;;;;;;5130472;28;21281;-62
2023/01/23 08:55:37;;;;;;;8.23;4.88;;;3.60;99.90;;;;;;5114996;28;20382;-62
2023/01/23 08:58:07;;;;;;;7.28;4.95;;;3.50;99.90;;;;;;5112180;28;20043;-62
2023/01/23 09:00:33;;;;;;;8.48;5.03;;;3.50;99.90;;;;;;5146305;27;20056;-62
2023/01/23 09:03:00;;;;;;;6.55;4.97;;;3.60;99.90;;;;;;5135090;27;20118;-61
2023/01/23 09:05:27;;;;;;;9.80;4.85;;;3.60;99.90;;;;;;5136465;27;20046;-61
2023/01/23 09:07:54;;;;;;;7.97;4.60;;;3.60;99.90;;;;;;5136338;27;20039;-62
2023/01/23 09:10:20;;;;;;;8.30;4.93;;;3.60;99.90;;;;;;5136571;27;20041;-62
2023/01/23 09:12:45;;;;;;;8.70;5.15;;;3.60;99.90;;;;;;5136431;27;20039;-62
2023/01/23 09:15:11;;;;;;;8.07;5.05;;;3.60;99.90;;;;;;5136659;27;20079;-62
2023/01/23 09:17:37;;;;;;;8.05;4.25;;;3.70;99.90;;;;;;5100670;27;20052;-62
2023/01/23 09:20:05;;;;;;;5.72;4.80;;;3.70;99.90;;;;;;5118392;27;20084;-62
2023/01/23 09:22:31;;;;;;;5.90;4.30;;;3.70;99.90;;;;;;5136538;27;20043;-62
2023/01/23 09:24:57;;;;;;;7.20;4.38;;;3.70;99.90;;;;;;5136400;27;20038;-62
2023/01/23 09:27:23;;;;;;;5.75;3.92;;;3.70;99.90;;;;;;5136351;27;20055;-62
2023/01/23 09:29:49;;;;;;;9.73;4.50;;;3.80;99.90;;;;;;5136453;27;20118;-62
2023/01/23 09:32:15;;;;;;;7.95;4.40;;;3.70;99.90;;;;;;5118364;27;20039;-62
2023/01/23 09:34:41;;;;;;;7.65;4.70;;;3.80;99.90;;;;;;5135431;27;20453;-62
2023/01/23 09:37:06;;;;;;;5.05;4.35;;;3.80;99.90;;;;;;5136293;27;20039;-63
2023/01/23 09:39:32;;;;;;;8.70;5.00;;;3.80;99.90;;;;;;5136375;27;20031;-63
2023/01/23 09:42:06;;;;;;;6.03;4.15;;;3.80;99.90;;;;;;5117733;27;20477;-62
2023/01/23 09:44:41;;;;;;;6.03;4.43;;;3.80;99.90;;;;;;5136377;27;20046;-62
2023/01/23 09:47:44;;;;;;;8.52;4.78;;;3.90;99.90;;;;;;5136171;27;20118;-63
2023/01/23 09:50:52;;;;;;;7.97;4.68;;;3.90;99.90;;;;;;5032461;28;20396;-63
2023/01/23 09:53:21;;;;;;;9.73;4.90;;;3.90;99.90;;;;;;4957509;28;20137;-62
2023/01/23 09:56:13;;;;;;;6.03;4.50;;;3.90;99.90;;;;;;4973776;28;20059;-63
2023/01/23 09:58:49;;;;;;;8.13;4.72;;;3.90;99.90;;;;;;4973357;28;20394;-62
2023/01/23 10:01:15;;;;;;;6.97;4.40;;;4.00;99.90;;;;;;4973515;28;20065;-63
2023/01/23 10:03:41;;;;;;;7.18;4.68;;;4.00;99.90;;;;;;4973571;28;20489;-63
2023/01/23 10:06:23;;;;;;;6.43;4.47;;;4.00;99.90;;;;;;4973523;28;20117;-63
2023/01/23 10:09:07;;;;;;;5.65;4.53;;;4.10;99.90;;;;;;4957392;28;20078;-62
2023/01/23 10:11:53;;;;;;;8.77;4.70;;;4.10;99.90;;;;;;4973162;28;20050;-62
2023/01/23 10:14:41;;;;;;;6.82;4.47;;;4.10;99.90;;;;;;4972508;28;20046;-62
2023/01/23 10:17:41;;;;;;;5.78;4.60;;;4.10;99.90;;;;;;4973271;28;20043;-62
2023/01/23 10:20:32;;;;;;;7.55;4.10;;;4.20;99.90;;;;;;4973088;28;20068;-62
2023/01/23 10:23:22;;;;;;;6.53;4.38;;;4.30;99.90;;;;;;4973350;28;20050;-62
2023/01/23 10:25:48;;;;;;;5.80;4.10;;;4.20;99.90;;;;;;4976032;28;20614;-62
2023/01/23 10:28:23;;;;;;;5.30;4.68;;;4.20;99.90;;;;;;5090665;27;20055;-62
2023/01/23 10:30:53;;;;;;;8.52;5.72;;;4.30;99.90;;;;;;5135378;27;20043;-62
2023/01/23 10:33:18;;;;;;;7.70;5.68;;;4.90;99.90;;;;;;5135287;27;20039;-63
2023/01/23 10:35:54;;;;;;;7.32;5.63;;;4.20;99.90;;;;;;5135042;27;20035;-63
2023/01/23 10:38:45;;;;;;;8.13;6.45;;;4.30;99.90;;;;;;5134763;27;20100;-63
2023/01/23 10:41:12;;;;;;;10.15;7.05;;;4.20;99.90;;;;;;5135266;27;20043;-63
2023/01/23 10:43:39;;;;;;;11.75;6.72;;;4.10;99.90;;;;;;5134743;27;20036;-62
2023/01/23 10:46:14;;;;;;;9.80;6.78;;;4.10;99.90;;;;;;5134452;27;20469;-62
2023/01/23 10:48:48;;;;;;;10.43;7.13;;;4.20;99.90;;;;;;5134854;27;20169;-62
2023/01/23 10:51:35;;;;;;;9.82;6.35;;;4.20;99.90;;;;;;5134717;27;20035;-62
2023/01/23 10:54:05;;;;;;;8.30;6.47;;;4.20;99.90;;;;;;5134804;27;20078;-62
2023/01/23 10:56:32;;;;;;;9.60;6.60;;;4.10;99.90;;;;;;5134624;27;20051;-63
2023/01/23 10:59:02;;;;;;;7.90;6.95;;;4.20;99.90;;;;;;5134623;27;20521;-62
2023/01/23 11:01:32;;;;;;;9.15;6.88;;;4.20;99.90;;;;;;5134397;27;20060;-63
2023/01/23 11:04:20;;;;;;;11.52;7.53;;;4.30;99.90;;;;;;5134794;27;20046;-62
2023/01/23 11:07:04;;;;;;;13.32;7.90;;;4.30;99.90;;;;;;5134629;27;20047;-63
2023/01/23 11:09:31;;;;;;;12.02;7.25;;;4.30;99.90;;;;;;5115922;27;20043;-63
2023/01/23 11:12:04;;;;;;;12.68;8.05;;;4.30;99.90;;;;;;5133823;27;20031;-62
2023/01/23 11:14:30;;;;;;;13.75;7.80;;;4.30;99.90;;;;;;5134338;27;20110;-62
2023/01/23 11:17:14;;;;;;;12.05;6.88;;;4.30;99.90;;;;;;5115648;27;20263;-62
2023/01/23 11:19:41;;;;;;;13.63;8.18;;;4.30;99.90;;;;;;5134066;27;20039;-62
2023/01/23 11:22:24;;;;;;;12.45;8.50;;;4.40;99.90;;;;;;5134409;27;20106;-63
2023/01/23 11:24:50;;;;;;;12.32;7.82;;;4.50;99.90;;;;;;5133771;27;20039;-63
2023/01/23 11:27:26;;;;;;;11.05;8.95;;;4.40;99.90;;;;;;5132975;27;20043;-63
2023/01/23 11:30:07;;;;;;;12.60;8.45;;;4.40;99.90;;;;;;5133556;27;20050;-62
2023/01/23 11:32:41;;;;;;;10.93;8.10;;;4.40;99.90;;;;;;5132399;27;20031;-63
2023/01/23 11:35:36;;;;;;;15.80;8.35;;;4.50;99.90;;;;;;5133114;27;20046;-62
2023/01/23 11:38:03;;;;;;;12.15;7.88;;;4.50;99.90;;;;;;5133429;27;20054;-63
2023/01/23 11:40:29;;;;;;;12.07;7.72;;;4.50;99.90;;;;;;5133639;27;20042;-62
2023/01/23 11:42:55;;;;;;;13.40;7.88;;;4.50;99.90;;;;;;5133680;27;20039;-62
2023/01/23 11:45:21;;;;;;;9.50;7.32;;;4.50;99.90;;;;;;5115673;27;20038;-62
2023/01/23 11:48:32;;;;;;;10.60;7.80;;;4.50;99.90;;;;;;5133701;27;20448;-62
2023/01/23 11:51:43;;;;;;;11.48;7.88;;;4.60;99.90;;;;;;5030143;28;20132;-62
2023/01/23 11:54:23;;;;;;;10.32;7.47;;;4.50;99.90;;;;;;5014087;28;20159;-62
2023/01/23 11:57:04;;;;;;;9.23;7.13;;;4.50;99.90;;;;;;5030280;28;20181;-63
2023/01/23 11:59:44;;;;;;;7.85;6.65;;;4.60;99.90;;;;;;5013565;28;20041;-62
2023/01/23 12:02:41;;;;;;;9.60;6.75;;;4.60;99.90;;;;;;5030041;28;20484;-62
2023/01/23 12:05:14;;;;;;;9.57;6.43;;;4.60;99.90;;;;;;5029897;28;20041;-62
2023/01/23 12:07:56;;;;;;;7.78;6.40;;;4.70;99.90;;;;;;5030132;28;20057;-63
2023/01/23 12:10:41;;;;;;;7.32;6.43;;;4.70;99.90;;;;;;5029997;28;20255;-62
2023/01/23 12:13:33;;;;;;;11.95;6.68;;;4.80;99.90;;;;;;5029916;28;20045;-62
2023/01/23 12:16:16;;;;;;;7.32;6.20;;;4.80;99.90;;;;;;5030124;28;20124;-62
2023/01/23 12:19:02;;;;;;;8.48;5.63;;;4.90;99.90;;;;;;5029919;28;20045;-62
2023/01/23 12:21:55;;;;;;;6.88;5.88;;;4.90;99.90;;;;;;5029904;28;20055;-62
2023/01/23 12:24:51;;;;;;;7.65;6.65;;;4.90;99.90;;;;;;5029876;28;20038;-62
2023/01/23 12:27:40;;;;;;;7.97;6.50;;;4.90;99.90;;;;;;5065141;28;20561;-63
2023/01/23 12:30:21;;;;;;;8.13;6.60;;;4.90;99.90;;;;;;5133101;28;20057;-62
2023/01/23 12:33:16;;;;;;;7.00;5.20;;;4.80;99.90;;;;;;5114731;28;20055;-63
2023/01/23 12:35:56;;;;;;;8.27;6.38;;;4.80;99.90;;;;;;5133207;28;20042;-62
2023/01/23 12:38:30;;;;;;;8.98;6.72;;;4.80;99.90;;;;;;5136287;27;20043;-62
2023/01/23 12:41:21;;;;;;;10.13;7.22;;;4.70;99.90;;;;;;5136948;27;20035;-62
2023/01/23 12:43:53;;;;;;;9.50;7.05;;;4.70;99.90;;;;;;5137472;27;20047;-63
2023/01/23 12:46:25;;;;;;;11.05;7.68;;;4.70;99.90;;;;;;5137183;27;20031;-62
2023/01/23 12:49:14;;;;;;;14.32;7.65;;;4.60;99.90;;;;;;5137104;27;20054;-62
2023/01/23 12:51:44;;;;;;;9.02;7.13;;;4.70;99.90;;;;;;5101565;27;20081;-62
2023/01/23 12:54:17;;;;;;;8.68;6.68;;;4.60;99.90;;;;;;5136739;27;20122;-62
2023/01/23 12:56:45;;;;;;;8.48;6.82;;;4.60;99.90;;;;;;5137006;27;20036;-62
2023/01/23 12:59:36;;;;;;;9.95;6.85;;;4.70;99.90;;;;;;5136709;27;20499;-61
2023/01/23 13:02:05;;;;;;;9.73;7.05;;;4.60;99.90;;;;;;5032754;28;20045;-62
2023/01/23 13:04:54;;;;;;;8.45;6.80;;;4.60;99.90;;;;;;5033252;28;20472;-61
2023/01/23 13:07:30;;;;;;;12.63;7.13;;;4.60;99.90;;;;;;5033353;28;20049;-62
2023/01/23 13:10:20;;;;;;;8.45;6.43;;;4.60;99.90;;;;;;5033338;28;20107;-62
2023/01/23 13:12:45;;;;;;;7.88;6.55;;;4.60;99.90;;;;;;5033450;28;20050;-62